sensor_id;sensor_type;location;lat;lon;timestamp;temperature;humidity
43414;DHT22;29013;49.676;8.606;2022-12-18T00:00:30;-5.8;99.9
43414;DHT22;29013;49.676;8.606;2022-12-18T00:05:51;-5.7;99.9
43414;DHT22;29013;49.676;8.606;2022-12-18T00:11:13;-5.7;99.9
43414;DHT22;29013;49.676;8.606;2022-12-18T00:16:34;-5.7;99.9
43414;DHT22;29013;49.676;8.606;2022-12-18T00:21:55;-5.8;99.9
43414;DHT22;29013;49.676;8.606;2022-12-18T00:27:16;-5.8;99.9
43414;DHT22;29013;49.676;8.606;2022-12-18T00:32:37;-5.8;99.9
43414;DHT22;29013;49.676;8.606;2022-12-18T00:37:58;-5.7;99.9
43414;DHT22;29013;49.676;8.606;2022-12-18T00:43:19;-5.8;99.9
43414;DHT22;29013;49.676;8.606;2022-12-18T00:48:40;-5.9;99.9
43414;DHT22;29013;49.676;8.606;2022-12-18T00:54:03;-5.9;99.9
43414;DHT22;29013;49.676;8.606;2022-12-18T00:59:23;-5.9;99.9
43414;DHT22;29013;49.676;8.606;2022-12-18T01:04:44;-6.0;99.9
43414;DHT22;29013;49.676;8.606;2022-12-18T01:10:12;-6.0;99.9
43414;DHT22;29013;49.676;8.606;2022-12-18T01:15:36;-6.0;99.9
43414;DHT22;29013;49.676;8.606;2022-12-18T01:21:00;-6.1;99.9
43414;DHT22;29013;49.676;8.606;2022-12-18T01:26:27;-6.0;99.9
43414;DHT22;29013;49.676;8.606;2022-12-18T01:31:48;-5.9;99.9
43414;DHT22;29013;49.676;8.606;2022-12-18T01:37:13;-5.9;99.9
43414;DHT22;29013;49.676;8.606;2022-12-18T01:42:40;-5.9;99.9
43414;DHT22;29013;49.676;8.606;2022-12-18T01:48:05;-5.9;99.9
43414;DHT22;29013;49.676;8.606;2022-12-18T01:53:28;-6.1;99.9
43414;DHT22;29013;49.676;8.606;2022-12-18T01:58:58;-6.0;99.9
43414;DHT22;29013;49.676;8.606;2022-12-18T02:04:25;-6.1;99.9
43414;DHT22;29013;49.676;8.606;2022-12-18T02:09:50;-6.2;99.9
43414;DHT22;29013;49.676;8.606;2022-12-18T02:15:15;-6.2;99.9
43414;DHT22;29013;49.676;8.606;2022-12-18T02:20:43;-6.2;99.9
43414;DHT22;29013;49.676;8.606;2022-12-18T02:26:08;-6.2;99.9
43414;DHT22;29013;49.676;8.606;2022-12-18T02:31:35;-6.2;99.9
43414;DHT22;29013;49.676;8.606;2022-12-18T02:36:59;-6.2;99.9
43414;DHT22;29013;49.676;8.606;2022-12-18T02:42:30;-6.2;99.9
43414;DHT22;29013;49.676;8.606;2022-12-18T02:47:50;-6.1;99.9
43414;DHT22;29013;49.676;8.606;2022-12-18T02:53:18;-6.2;99.9
43414;DHT22;29013;49.676;8.606;2022-12-18T02:58:45;-6.5;99.9
43414;DHT22;29013;49.676;8.606;2022-12-18T03:04:04;-6.6;99.9
43414;DHT22;29013;49.676;8.606;2022-12-18T03:09:29;-6.8;99.9
43414;DHT22;29013;49.676;8.606;2022-12-18T03:14:57;-7.0;99.9
43414;DHT22;29013;49.676;8.606;2022-12-18T03:20:23;-7.0;99.9
43414;DHT22;29013;49.676;8.606;2022-12-18T03:25:45;-6.9;99.9
43414;DHT22;29013;49.676;8.606;2022-12-18T03:31:11;-6.9;99.9
43414;DHT22;29013;49.676;8.606;2022-12-18T03:36:35;-7.0;99.9
43414;DHT22;29013;49.676;8.606;2022-12-18T03:41:57;-7.0;99.9
43414;DHT22;29013;49.676;8.606;2022-12-18T03:47:24;-7.0;99.9
43414;DHT22;29013;49.676;8.606;2022-12-18T03:52:49;-7.0;99.9
43414;DHT22;29013;49.676;8.606;2022-12-18T03:58:16;-7.1;99.9
43414;DHT22;29013;49.676;8.606;2022-12-18T04:03:42;-7.0;99.9
43414;DHT22;29013;49.676;8.606;2022-12-18T04:09:07;-7.2;99.9
43414;DHT22;29013;49.676;8.606;2022-12-18T04:14:34;-7.2;99.9
43414;DHT22;29013;49.676;8.606;2022-12-18T04:20:01;-7.3;99.9
43414;DHT22;29013;49.676;8.606;2022-12-18T04:25:25;-7.4;99.9
43414;DHT22;29013;49.676;8.606;2022-12-18T04:30:52;-7.5;99.9
43414;DHT22;29013;49.676;8.606;2022-12-18T04:36:19;-7.5;99.9
43414;DHT22;29013;49.676;8.606;2022-12-18T04:41:46;-7.7;99.9
43414;DHT22;29013;49.676;8.606;2022-12-18T04:47:12;-7.5;99.9
43414;DHT22;29013;49.676;8.606;2022-12-18T04:52:33;-7.5;99.9
43414;DHT22;29013;49.676;8.606;2022-12-18T04:57:59;-7.4;99.9
43414;DHT22;29013;49.676;8.606;2022-12-18T05:03:26;-7.3;99.9
43414;DHT22;29013;49.676;8.606;2022-12-18T05:08:47;-7.2;99.9
43414;DHT22;29013;49.676;8.606;2022-12-18T05:14:13;-7.3;99.9
43414;DHT22;29013;49.676;8.606;2022-12-18T05:19:38;-7.3;99.9
43414;DHT22;29013;49.676;8.606;2022-12-18T05:25:05;-7.3;99.9
43414;DHT22;29013;49.676;8.606;2022-12-18T05:30:30;-7.2;99.9
43414;DHT22;29013;49.676;8.606;2022-12-18T05:35:58;-7.2;99.9
43414;DHT22;29013;49.676;8.606;2022-12-18T05:41:23;-7.3;99.9
43414;DHT22;29013;49.676;8.606;2022-12-18T05:46:47;-7.3;99.9
43414;DHT22;29013;49.676;8.606;2022-12-18T05:52:13;-7.2;99.9
43414;DHT22;29013;49.676;8.606;2022-12-18T05:57:34;-7.4;99.9
43414;DHT22;29013;49.676;8.606;2022-12-18T06:02:59;-7.3;99.9
43414;DHT22;29013;49.676;8.606;2022-12-18T06:08:25;-7.3;99.9
43414;DHT22;29013;49.676;8.606;2022-12-18T06:13:53;-7.2;99.9
43414;DHT22;29013;49.676;8.606;2022-12-18T06:19:19;-7.2;99.9
43414;DHT22;29013;49.676;8.606;2022-12-18T06:24:46;-7.2;99.9
43414;DHT22;29013;49.676;8.606;2022-12-18T06:30:13;-7.2;99.9
43414;DHT22;29013;49.676;8.606;2022-12-18T06:35:37;-7.2;99.9
43414;DHT22;29013;49.676;8.606;2022-12-18T06:40:58;-7.2;99.9
43414;DHT22;29013;49.676;8.606;2022-12-18T06:46:24;-7.1;99.9
43414;DHT22;29013;49.676;8.606;2022-12-18T06:52:04;-7.1;99.9
43414;DHT22;29013;49.676;8.606;2022-12-18T06:57:29;-6.8;99.9
43414;DHT22;29013;49.676;8.606;2022-12-18T07:02:50;-6.7;99.9
43414;DHT22;29013;49.676;8.606;2022-12-18T07:08:15;-6.8;99.9
43414;DHT22;29013;49.676;8.606;2022-12-18T07:13:38;-6.8;99.9
43414;DHT22;29013;49.676;8.606;2022-12-18T07:18:58;-6.9;99.9
43414;DHT22;29013;49.676;8.606;2022-12-18T07:24:25;-7.0;99.9
43414;DHT22;29013;49.676;8.606;2022-12-18T07:29:51;-7.0;99.9
43414;DHT22;29013;49.676;8.606;2022-12-18T07:35:19;-6.8;99.9
43414;DHT22;29013;49.676;8.606;2022-12-18T07:40:46;-6.8;99.9
43414;DHT22;29013;49.676;8.606;2022-12-18T07:46:09;-7.0;99.9
43414;DHT22;29013;49.676;8.606;2022-12-18T07:51:34;-7.0;99.9
43414;DHT22;29013;49.676;8.606;2022-12-18T07:56:54;-7.1;99.9
43414;DHT22;29013;49.676;8.606;2022-12-18T08:02:21;-7.3;99.9
43414;DHT22;29013;49.676;8.606;2022-12-18T08:07:46;-7.4;99.9
43414;DHT22;29013;49.676;8.606;2022-12-18T08:13:07;-7.4;99.9
43414;DHT22;29013;49.676;8.606;2022-12-18T08:18:34;-7.2;99.9
43414;DHT22;29013;49.676;8.606;2022-12-18T08:24:00;-7.1;99.9
43414;DHT22;29013;49.676;8.606;2022-12-18T08:29:21;-7.0;99.9
43414;DHT22;29013;49.676;8.606;2022-12-18T08:34:46;-7.0;99.9
43414;DHT22;29013;49.676;8.606;2022-12-18T08:40:13;-7.0;99.9
43414;DHT22;29013;49.676;8.606;2022-12-18T08:45:33;-7.1;99.9
43414;DHT22;29013;49.676;8.606;2022-12-18T08:50:58;-7.0;99.9
43414;DHT22;29013;49.676;8.606;2022-12-18T08:56:19;-7.1;99.9
43414;DHT22;29013;49.676;8.606;2022-12-18T09:01:44;-7.1;99.9
43414;DHT22;29013;49.676;8.606;2022-12-18T09:07:10;-6.9;99.9
43414;DHT22;29013;49.676;8.606;2022-12-18T09:12:37;-6.7;99.9
43414;DHT22;29013;49.676;8.606;2022-12-18T09:18:04;-6.3;99.9
43414;DHT22;29013;49.676;8.606;2022-12-18T09:23:27;-6.0;99.9
43414;DHT22;29013;49.676;8.606;2022-12-18T09:28:50;-5.9;99.9
43414;DHT22;29013;49.676;8.606;2022-12-18T09:34:18;-5.8;99.9
43414;DHT22;29013;49.676;8.606;2022-12-18T09:39:42;-5.6;99.9
43414;DHT22;29013;49.676;8.606;2022-12-18T09:45:04;-5.5;99.9
43414;DHT22;29013;49.676;8.606;2022-12-18T09:50:29;-5.6;99.9
43414;DHT22;29013;49.676;8.606;2022-12-18T09:55:55;-5.7;99.9
43414;DHT22;29013;49.676;8.606;2022-12-18T10:01:21;-5.6;99.9
43414;DHT22;29013;49.676;8.606;2022-12-18T10:06:51;-5.5;99.9
43414;DHT22;29013;49.676;8.606;2022-12-18T10:12:12;-5.4;99.9
43414;DHT22;29013;49.676;8.606;2022-12-18T10:17:34;-5.3;99.9
43414;DHT22;29013;49.676;8.606;2022-12-18T10:22:57;-5.3;99.9
43414;DHT22;29013;49.676;8.606;2022-12-18T10:28:24;-5.1;99.9
43414;DHT22;29013;49.676;8.606;2022-12-18T10:33:51;-5.0;99.9
43414;DHT22;29013;49.676;8.606;2022-12-18T10:39:19;-4.8;99.9
43414;DHT22;29013;49.676;8.606;2022-12-18T10:44:43;-4.8;99.9
43414;DHT22;29013;49.676;8.606;2022-12-18T10:50:23;-4.8;99.9
43414;DHT22;29013;49.676;8.606;2022-12-18T10:55:44;-4.5;99.9
43414;DHT22;29013;49.676;8.606;2022-12-18T11:01:11;-4.4;99.9
43414;DHT22;29013;49.676;8.606;2022-12-18T11:06:36;-4.3;99.9
43414;DHT22;29013;49.676;8.606;2022-12-18T11:12:02;-4.1;99.9
43414;DHT22;29013;49.676;8.606;2022-12-18T11:17:32;-3.9;99.9
43414;DHT22;29013;49.676;8.606;2022-12-18T11:22:58;-3.6;99.9
43414;DHT22;29013;49.676;8.606;2022-12-18T11:28:33;-3.4;99.9
43414;DHT22;29013;49.676;8.606;2022-12-18T11:34:02;-3.4;99.9
43414;DHT22;29013;49.676;8.606;2022-12-18T11:39:25;-3.1;99.9
43414;DHT22;29013;49.676;8.606;2022-12-18T11:44:48;-2.9;99.9
43414;DHT22;29013;49.676;8.606;2022-12-18T11:50:12;-2.7;99.9
43414;DHT22;29013;49.676;8.606;2022-12-18T11:55:36;-2.4;99.9
43414;DHT22;29013;49.676;8.606;2022-12-18T12:01:06;-2.3;99.9
43414;DHT22;29013;49.676;8.606;2022-12-18T12:06:26;-2.1;99.9
43414;DHT22;29013;49.676;8.606;2022-12-18T12:11:50;-2.2;99.9
43414;DHT22;29013;49.676;8.606;2022-12-18T12:17:14;-2.3;99.9
43414;DHT22;29013;49.676;8.606;2022-12-18T12:22:40;-2.3;99.9
43414;DHT22;29013;49.676;8.606;2022-12-18T12:28:15;-2.5;99.9
43414;DHT22;29013;49.676;8.606;2022-12-18T12:33:38;-2.7;99.9
43414;DHT22;29013;49.676;8.606;2022-12-18T12:39:05;-2.6;99.9
43414;DHT22;29013;49.676;8.606;2022-12-18T12:44:28;-2.5;99.9
43414;DHT22;29013;49.676;8.606;2022-12-18T12:49:51;-2.5;99.9
43414;DHT22;29013;49.676;8.606;2022-12-18T12:55:15;-2.5;99.9
43414;DHT22;29013;49.676;8.606;2022-12-18T13:00:39;-2.5;99.9
43414;DHT22;29013;49.676;8.606;2022-12-18T13:06:05;-2.9;99.9
43414;DHT22;29013;49.676;8.606;2022-12-18T13:11:34;-3.0;99.9
43414;DHT22;29013;49.676;8.606;2022-12-18T13:22:46;-2.8;99.9
43414;DHT22;29013;49.676;8.606;2022-12-18T13:28:11;-2.8;99.9
43414;DHT22;29013;49.676;8.606;2022-12-18T13:33:43;-2.8;99.9
43414;DHT22;29013;49.676;8.606;2022-12-18T13:44:56;-2.8;99.9
43414;DHT22;29013;49.676;8.606;2022-12-18T13:50:26;-2.8;99.9
43414;DHT22;29013;49.676;8.606;2022-12-18T13:55:48;-3.0;99.9
43414;DHT22;29013;49.676;8.606;2022-12-18T14:01:25;-3.1;99.9
43414;DHT22;29013;49.676;8.606;2022-12-18T14:06:50;-3.0;99.9
43414;DHT22;29013;49.676;8.606;2022-12-18T14:12:17;-3.1;99.9
43414;DHT22;29013;49.676;8.606;2022-12-18T14:17:39;-3.0;99.9
43414;DHT22;29013;49.676;8.606;2022-12-18T14:22:59;-3.2;99.9
43414;DHT22;29013;49.676;8.606;2022-12-18T14:28:25;-3.2;99.9
43414;DHT22;29013;49.676;8.606;2022-12-18T14:33:47;-3.2;99.9
43414;DHT22;29013;49.676;8.606;2022-12-18T14:39:16;-3.1;99.9
43414;DHT22;29013;49.676;8.606;2022-12-18T14:44:37;-3.1;99.9
43414;DHT22;29013;49.676;8.606;2022-12-18T14:50:11;-3.2;99.9
43414;DHT22;29013;49.676;8.606;2022-12-18T14:55:33;-3.3;99.9
43414;DHT22;29013;49.676;8.606;2022-12-18T15:00:57;-3.4;99.9
43414;DHT22;29013;49.676;8.606;2022-12-18T15:12:04;-3.3;99.9
43414;DHT22;29013;49.676;8.606;2022-12-18T15:17:28;-3.3;99.9
43414;DHT22;29013;49.676;8.606;2022-12-18T15:22:51;-3.3;99.9
43414;DHT22;29013;49.676;8.606;2022-12-18T15:28:23;-3.3;99.9
43414;DHT22;29013;49.676;8.606;2022-12-18T15:34:00;-3.4;99.9
43414;DHT22;29013;49.676;8.606;2022-12-18T15:39:19;-3.3;99.9
43414;DHT22;29013;49.676;8.606;2022-12-18T15:44:47;-3.3;99.9
43414;DHT22;29013;49.676;8.606;2022-12-18T15:50:12;-3.4;99.9
43414;DHT22;29013;49.676;8.606;2022-12-18T15:55:38;-3.5;99.9
43414;DHT22;29013;49.676;8.606;2022-12-18T16:01:05;-3.5;99.9
43414;DHT22;29013;49.676;8.606;2022-12-18T16:06:29;-3.5;99.9
43414;DHT22;29013;49.676;8.606;2022-12-18T16:11:54;-3.5;99.9
43414;DHT22;29013;49.676;8.606;2022-12-18T16:17:19;-3.5;99.9
43414;DHT22;29013;49.676;8.606;2022-12-18T16:22:45;-3.5;99.9
43414;DHT22;29013;49.676;8.606;2022-12-18T16:28:11;-3.5;99.9
43414;DHT22;29013;49.676;8.606;2022-12-18T16:33:36;-3.4;99.9
43414;DHT22;29013;49.676;8.606;2022-12-18T16:39:04;-3.4;99.9
43414;DHT22;29013;49.676;8.606;2022-12-18T16:44:30;-3.4;99.9
43414;DHT22;29013;49.676;8.606;2022-12-18T16:49:58;-3.3;99.9
43414;DHT22;29013;49.676;8.606;2022-12-18T16:55:21;-3.3;99.9
43414;DHT22;29013;49.676;8.606;2022-12-18T17:00:49;-3.3;99.9
43414;DHT22;29013;49.676;8.606;2022-12-18T17:06:16;-3.3;99.9
43414;DHT22;29013;49.676;8.606;2022-12-18T17:11:43;-3.4;99.9
43414;DHT22;29013;49.676;8.606;2022-12-18T17:17:08;-3.4;99.9
43414;DHT22;29013;49.676;8.606;2022-12-18T17:22:33;-3.5;99.9
43414;DHT22;29013;49.676;8.606;2022-12-18T17:27:59;-3.5;99.9
43414;DHT22;29013;49.676;8.606;2022-12-18T17:33:25;-3.5;99.9
43414;DHT22;29013;49.676;8.606;2022-12-18T17:38:54;-3.5;99.9
43414;DHT22;29013;49.676;8.606;2022-12-18T17:44:17;-3.4;99.9
43414;DHT22;29013;49.676;8.606;2022-12-18T17:49:43;-3.4;99.9
43414;DHT22;29013;49.676;8.606;2022-12-18T17:55:06;-3.4;99.9
43414;DHT22;29013;49.676;8.606;2022-12-18T18:00:29;-3.3;99.9
43414;DHT22;29013;49.676;8.606;2022-12-18T18:05:54;-3.4;99.9
43414;DHT22;29013;49.676;8.606;2022-12-18T18:11:19;-3.4;99.9
43414;DHT22;29013;49.676;8.606;2022-12-18T18:16:46;-3.4;99.9
43414;DHT22;29013;49.676;8.606;2022-12-18T18:22:10;-3.4;99.9
43414;DHT22;29013;49.676;8.606;2022-12-18T18:27:36;-3.3;99.9
43414;DHT22;29013;49.676;8.606;2022-12-18T18:33:02;-3.3;99.9
43414;DHT22;29013;49.676;8.606;2022-12-18T18:38:29;-3.2;99.9
43414;DHT22;29013;49.676;8.606;2022-12-18T18:43:57;-3.2;99.9
43414;DHT22;29013;49.676;8.606;2022-12-18T18:49:22;-3.1;99.9
43414;DHT22;29013;49.676;8.606;2022-12-18T18:54:43;-3.2;99.9
43414;DHT22;29013;49.676;8.606;2022-12-18T19:00:14;-3.2;99.9
43414;DHT22;29013;49.676;8.606;2022-12-18T19:05:34;-3.1;99.9
43414;DHT22;29013;49.676;8.606;2022-12-18T19:11:01;-3.1;99.9
43414;DHT22;29013;49.676;8.606;2022-12-18T19:16:24;-3.1;99.9
43414;DHT22;29013;49.676;8.606;2022-12-18T19:21:49;-3.0;99.9
43414;DHT22;29013;49.676;8.606;2022-12-18T19:27:15;-3.0;99.9
43414;DHT22;29013;49.676;8.606;2022-12-18T19:32:41;-3.0;99.9
43414;DHT22;29013;49.676;8.606;2022-12-18T19:38:01;-2.9;99.9
43414;DHT22;29013;49.676;8.606;2022-12-18T19:43:28;-2.9;99.9
43414;DHT22;29013;49.676;8.606;2022-12-18T19:48:57;-2.9;99.9
43414;DHT22;29013;49.676;8.606;2022-12-18T19:54:17;-2.9;99.9
43414;DHT22;29013;49.676;8.606;2022-12-18T19:59:42;-2.9;99.9
43414;DHT22;29013;49.676;8.606;2022-12-18T20:05:10;-2.9;99.9
43414;DHT22;29013;49.676;8.606;2022-12-18T20:10:30;-2.8;99.9
43414;DHT22;29013;49.676;8.606;2022-12-18T20:15:56;-2.8;99.9
43414;DHT22;29013;49.676;8.606;2022-12-18T20:21:17;-2.7;99.9
43414;DHT22;29013;49.676;8.606;2022-12-18T20:26:44;-2.7;99.9
43414;DHT22;29013;49.676;8.606;2022-12-18T20:32:09;-2.7;99.9
43414;DHT22;29013;49.676;8.606;2022-12-18T20:37:33;-2.8;99.9
43414;DHT22;29013;49.676;8.606;2022-12-18T20:43:00;-2.8;99.9
43414;DHT22;29013;49.676;8.606;2022-12-18T20:48:27;-2.8;99.9
43414;DHT22;29013;49.676;8.606;2022-12-18T20:53:53;-2.7;99.9
43414;DHT22;29013;49.676;8.606;2022-12-18T20:59:13;-2.8;99.9
43414;DHT22;29013;49.676;8.606;2022-12-18T21:04:37;-2.8;99.9
43414;DHT22;29013;49.676;8.606;2022-12-18T21:10:08;-2.7;99.9
43414;DHT22;29013;49.676;8.606;2022-12-18T21:15:31;-2.6;99.9
43414;DHT22;29013;49.676;8.606;2022-12-18T21:21:39;-2.6;99.9
43414;DHT22;29013;49.676;8.606;2022-12-18T21:27:03;-2.3;99.9
43414;DHT22;29013;49.676;8.606;2022-12-18T21:32:27;-2.4;99.9
43414;DHT22;29013;49.676;8.606;2022-12-18T21:37:51;-2.4;99.9
43414;DHT22;29013;49.676;8.606;2022-12-18T21:43:12;-2.3;99.9
43414;DHT22;29013;49.676;8.606;2022-12-18T21:48:38;-2.3;99.9
43414;DHT22;29013;49.676;8.606;2022-12-18T21:54:03;-2.3;99.9
43414;DHT22;29013;49.676;8.606;2022-12-18T21:59:30;-2.2;99.9
43414;DHT22;29013;49.676;8.606;2022-12-18T22:04:54;-2.2;99.9
43414;DHT22;29013;49.676;8.606;2022-12-18T22:10:16;-2.2;99.9
43414;DHT22;29013;49.676;8.606;2022-12-18T22:15:39;-2.2;99.9
43414;DHT22;29013;49.676;8.606;2022-12-18T22:21:18;-2.2;99.9
43414;DHT22;29013;49.676;8.606;2022-12-18T22:26:40;-2.1;99.9
43414;DHT22;29013;49.676;8.606;2022-12-18T22:32:08;-2.2;99.9
43414;DHT22;29013;49.676;8.606;2022-12-18T22:37:34;-2.1;99.9
43414;DHT22;29013;49.676;8.606;2022-12-18T22:43:02;-2.1;99.9
43414;DHT22;29013;49.676;8.606;2022-12-18T22:48:28;-2.1;99.9
43414;DHT22;29013;49.676;8.606;2022-12-18T22:53:55;-2.0;99.9
43414;DHT22;29013;49.676;8.606;2022-12-18T22:59:22;-2.0;99.9
43414;DHT22;29013;49.676;8.606;2022-12-18T23:04:49;-2.0;99.9
43414;DHT22;29013;49.676;8.606;2022-12-18T23:10:11;-1.9;99.9
43414;DHT22;29013;49.676;8.606;2022-12-18T23:15:32;-1.9;99.9
43414;DHT22;29013;49.676;8.606;2022-12-18T23:21:01;-1.8;99.9
43414;DHT22;29013;49.676;8.606;2022-12-18T23:26:20;-1.8;99.9
43414;DHT22;29013;49.676;8.606;2022-12-18T23:31:42;-1.7;99.9
43414;DHT22;29013;49.676;8.606;2022-12-18T23:37:10;-1.7;99.9
43414;DHT22;29013;49.676;8.606;2022-12-18T23:42:38;-1.7;99.9
43414;DHT22;29013;49.676;8.606;2022-12-18T23:48:04;-1.6;99.9
43414;DHT22;29013;49.676;8.606;2022-12-18T23:53:25;-1.6;99.9
43414;DHT22;29013;49.676;8.606;2022-12-18T23:58:53;-1.6;99.9
